Distington, United Kingdom
Current Conditions -  °F | °C
As of 9:50 PM on Sunday 21 Dec 2014 (Local Time) from EGOM Reporting Station
Light Rain Light Rain  
Wind Chill: 50°   Ceiling: NA
Heat Index: 50°   Visibility: 6mi
Dew Point: 50°   Wind: 33mph
Humidity: 100%   Direction: 240°WSW
Pressure: 29.71"   Gusts: 49mph
Location:  54.6°N, 3.54°W
Report Text: EGOM 212150Z AUTO 24029G43KT 9999 -RA ///////// 10/10 Q1006
Loading
Personal Weather Stations






























Interactive Weather Map New forecast layout! Learn more

10-Day Weather Forecast

Advertisements
Track Severe Weather on mobile